Time;durP1;ratioP1;P1;durP2;ratioP2;P2;SDS_P1;SDS_P2;PMS_P1;PMS_P2;Temp;Humidity;BMP_temperature;BMP_pressure;BME280_temperature;BME280_humidity;BME280_pressure;Samples;Min_cycle;Max_cycle;Signal;HPM_P1;HPM_P2
2022/05/05 00:01:08;;;;;;;;;;;;;;;;;;5053841;28;19916;-44
2022/05/05 00:03:33;;;;;;;;;;;;;;;;;;5053770;28;19913;-44
2022/05/05 00:05:58;;;;;;;;;;;;;;;;;;5054407;28;20348;-43
2022/05/05 00:08:23;;;;;;;;;;;;;;;;;;5057620;28;20233;-42
2022/05/05 00:16:16;;;;;;;;;;;;;;;;;;5057426;28;19962;-42
2022/05/05 00:18:41;;;;;;;;;;;;;;;;;;5057294;28;19913;-44
2022/05/05 00:21:06;;;;;;;;;;;;;;;;;;5057234;28;19935;-44
2022/05/05 00:23:31;;;;;;;;;;;;;;;;;;5057061;28;19912;-44
2022/05/05 00:25:57;;;;;;;;;;;;;;;;;;5056687;28;20314;-44
2022/05/05 00:28:22;;;;;;;;;;;;;;;;;;5056658;28;19921;-44
2022/05/05 00:30:47;;;;;;;;;;;;;;;;;;5052452;28;19917;-44
2022/05/05 00:33:12;;;;;;;;;;;;;;;;;;5052500;28;19917;-42
2022/05/05 00:35:37;;;;;;;;;;;;;;;;;;5037008;28;20014;-42
2022/05/05 00:38:03;;;;;;;;;;;;;;;;;;5037111;28;19968;-43
2022/05/05 00:40:28;;;;;;;;;;;;;;;;;;5036876;28;20050;-42
2022/05/05 00:42:53;;;;;;;;;;;;;;;;;;5036868;28;20284;-42
2022/05/05 00:45:18;;;;;;;;;;;;;;;;;;5036835;28;19909;-42
2022/05/05 00:47:44;;;;;;;;;;;;;;;;;;5036936;28;19956;-42
2022/05/05 00:50:09;;;;;;;;;;;;;;;;;;5036737;28;19956;-42
2022/05/05 00:52:34;;;;;;;;;;;;;;;;;;5036901;28;19916;-44
2022/05/05 00:54:59;;;;;;;;;;;;;;;;;;5042818;28;19970;-44
2022/05/05 00:57:24;;;;;;;;;;;;;;;;;;5056570;28;19913;-44
2022/05/05 00:59:49;;;;;;;;;;;;;;;;;;5056424;28;20866;-44
2022/05/05 01:02:16;;;;;;;;;;;;;;;;;;5056431;28;20314;-44
2022/05/05 01:04:42;;;;;;;;;;;;;;;;;;5056457;28;19909;-45
2022/05/05 01:07:07;;;;;;;;;;;;;;;;;;5056420;28;19912;-46
2022/05/05 01:09:32;;;;;;;;;;;;;;;;;;5056330;28;19913;-44
2022/05/05 01:11:57;;;;;;;;;;;;;;;;;;5056280;28;19942;-44
2022/05/05 01:14:23;;;;;;;;;;;;;;;;;;5056332;28;19967;-46
2022/05/05 01:16:48;;;;;;;;;;;;;;;;;;5056217;28;19947;-44
2022/05/05 01:19:13;;;;;;;;;;;;;;;;;;5055304;28;19957;-44
2022/05/05 01:21:38;;;;;;;;;;;;;;;;;;5056123;28;20319;-45
2022/05/05 01:24:03;;;;;;;;;;;;;;;;;;5055878;28;20275;-44
2022/05/05 01:29:12;;;;;;;;;;;;;;;;;;5053606;22;20032;-42
2022/05/05 01:31:37;;;;;;;;;;;;;;;;;;5036108;28;19961;-42
2022/05/05 01:34:02;;;;;;;;;;;;;;;;;;5036072;28;19913;-44
2022/05/05 01:36:27;;;;;;;;;;;;;;;;;;5035570;28;20411;-44
2022/05/05 01:38:53;;;;;;;;;;;;;;;;;;5035782;28;19909;-44
2022/05/05 01:41:18;;;;;;;;;;;;;;;;;;5036092;28;19916;-45
2022/05/05 01:43:44;;;;;;;;;;;;;;;;;;5036033;28;20311;-44
2022/05/05 01:46:09;;;;;;;;;;;;;;;;;;5035818;28;20391;-44
2022/05/05 01:48:34;;;;;;;;;;;;;;;;;;5035869;28;19916;-44
2022/05/05 01:50:59;;;;;;;;;;;;;;;;;;5035710;28;20000;-45
2022/05/05 01:53:24;;;;;;;;;;;;;;;;;;5035800;28;19916;-44
2022/05/05 01:55:49;;;;;;;;;;;;;;;;;;5035304;28;19975;-44
2022/05/05 01:58:14;;;;;;;;;;;;;;;;;;5035768;28;19913;-44
2022/05/05 02:00:39;;;;;;;;;;;;;;;;;;5055409;28;19905;-44
2022/05/05 02:03:12;;;;;;;;;;;;;;;;;;5055446;28;20275;-41
2022/05/05 02:05:37;;;;;;;;;;;;;;;;;;5055515;28;20359;-44
2022/05/05 02:08:02;;;;;;;;;;;;;;;;;;5055542;28;19962;-43
2022/05/05 02:10:27;;;;;;;;;;;;;;;;;;5055644;28;19963;-43
2022/05/05 02:12:53;;;;;;;;;;;;;;;;;;5055184;28;19916;-45
2022/05/05 02:15:18;;;;;;;;;;;;;;;;;;5055236;28;20288;-44
2022/05/05 02:17:44;;;;;;;;;;;;;;;;;;5055253;28;19951;-44
2022/05/05 02:20:11;;;;;;;;;;;;;;;;;;5055429;28;20356;-45
2022/05/05 02:22:36;;;;;;;;;;;;;;;;;;5055182;28;20272;-43
2022/05/05 02:25:01;;;;;;;;;;;;;;;;;;5054264;28;19913;-44
2022/05/05 02:27:26;;;;;;;;;;;;;;;;;;5054952;28;19919;-44
2022/05/05 02:29:51;;;;;;;;;;;;;;;;;;5054776;28;20368;-44
2022/05/05 02:32:16;;;;;;;;;;;;;;;;;;5055240;28;19996;-44
2022/05/05 02:34:42;;;;;;;;;;;;;;;;;;5055030;28;20038;-44
2022/05/05 02:39:51;;;;;;;;;;;;;;;;;;5054966;28;19955;-44
2022/05/05 02:42:16;;;;;;;;;;;;;;;;;;5054744;28;19913;-41
2022/05/05 02:44:42;;;;;;;;;;;;;;;;;;5054756;28;19912;-44
2022/05/05 02:47:07;;;;;;;;;;;;;;;;;;5054741;28;19912;-43
2022/05/05 02:49:32;;;;;;;;;;;;;;;;;;5054663;28;19962;-44
2022/05/05 02:51:57;;;;;;;;;;;;;;;;;;5054972;28;19909;-44
2022/05/05 02:57:06;;;;;;;;;;;;;;;;;;5054366;28;19920;-44
2022/05/05 02:59:31;;;;;;;;;;;;;;;;;;5054446;28;19909;-45
2022/05/05 03:01:56;;;;;;;;;;;;;;;;;;5054412;28;20352;-43
2022/05/05 03:04:21;;;;;;;;;;;;;;;;;;5054519;28;20234;-44
2022/05/05 03:06:46;;;;;;;;;;;;;;;;;;5054527;28;19923;-44
2022/05/05 03:09:11;;;;;;;;;;;;;;;;;;5054398;28;19920;-44
2022/05/05 03:11:36;;;;;;;;;;;;;;;;;;5054525;28;19958;-44
2022/05/05 03:14:01;;;;;;;;;;;;;;;;;;5054340;28;19916;-44
2022/05/05 03:16:26;;;;;;;;;;;;;;;;;;5054433;28;19913;-45
2022/05/05 03:18:52;;;;;;;;;;;;;;;;;;5054474;28;19909;-44
2022/05/05 03:21:17;;;;;;;;;;;;;;;;;;5054401;28;19913;-44
2022/05/05 03:23:42;;;;;;;;;;;;;;;;;;5054254;28;19909;-44
2022/05/05 03:26:07;;;;;;;;;;;;;;;;;;5054245;28;20321;-44
2022/05/05 03:28:32;;;;;;;;;;;;;;;;;;5054158;28;19921;-44
2022/05/05 03:30:57;;;;;;;;;;;;;;;;;;5054304;28;19909;-45
2022/05/05 03:33:22;;;;;;;;;;;;;;;;;;5054335;28;19913;-44
2022/05/05 03:35:47;;;;;;;;;;;;;;;;;;5054160;28;20421;-44
2022/05/05 03:38:13;;;;;;;;;;;;;;;;;;5054207;28;19909;-43
2022/05/05 03:40:38;;;;;;;;;;;;;;;;;;5054125;28;19909;-44
2022/05/05 03:43:04;;;;;;;;;;;;;;;;;;5058037;28;19913;-45
2022/05/05 03:45:29;;;;;;;;;;;;;;;;;;5058054;28;19908;-43
2022/05/05 03:47:54;;;;;;;;;;;;;;;;;;5057830;28;19912;-44
2022/05/05 03:50:19;;;;;;;;;;;;;;;;;;5057844;28;20310;-44
2022/05/05 03:52:44;;;;;;;;;;;;;;;;;;5057887;28;19991;-44
2022/05/05 03:55:09;;;;;;;;;;;;;;;;;;5057410;28;19917;-45
2022/05/05 03:57:34;;;;;;;;;;;;;;;;;;5057647;28;20004;-45
2022/05/05 03:59:59;;;;;;;;;;;;;;;;;;5057877;28;20000;-45
2022/05/05 04:02:24;;;;;;;;;;;;;;;;;;5057670;28;19909;-44
2022/05/05 04:04:49;;;;;;;;;;;;;;;;;;5057776;28;19909;-44
2022/05/05 04:07:15;;;;;;;;;;;;;;;;;;5057616;28;19923;-44
2022/05/05 04:09:40;;;;;;;;;;;;;;;;;;5057747;28;19952;-45
2022/05/05 04:12:06;;;;;;;;;;;;;;;;;;5057684;28;19999;-46
2022/05/05 04:14:33;;;;;;;;;;;;;;;;;;5057456;28;20275;-44
2022/05/05 04:16:58;;;;;;;;;;;;;;;;;;5057552;28;19962;-44
2022/05/05 04:19:23;;;;;;;;;;;;;;;;;;5057647;28;19912;-44
2022/05/05 04:21:48;;;;;;;;;;;;;;;;;;5057258;28;20419;-44
2022/05/05 04:24:14;;;;;;;;;;;;;;;;;;5056524;28;20395;-44
2022/05/05 04:26:39;;;;;;;;;;;;;;;;;;5057326;28;20050;-44
2022/05/05 04:29:04;;;;;;;;;;;;;;;;;;5057167;28;19929;-47
2022/05/05 04:31:29;;;;;;;;;;;;;;;;;;5057209;28;19912;-44
2022/05/05 04:33:54;;;;;;;;;;;;;;;;;;5057181;28;19944;-45
2022/05/05 04:36:19;;;;;;;;;;;;;;;;;;5057087;28;19940;-44
2022/05/05 04:38:44;;;;;;;;;;;;;;;;;;5057225;28;19916;-43
2022/05/05 04:41:10;;;;;;;;;;;;;;;;;;5056996;28;20283;-44
2022/05/05 04:43:35;;;;;;;;;;;;;;;;;;5057071;28;20371;-43
2022/05/05 04:46:00;;;;;;;;;;;;;;;;;;5057089;28;19948;-44
2022/05/05 04:48:25;;;;;;;;;;;;;;;;;;5056927;28;19909;-44
2022/05/05 04:50:50;;;;;;;;;;;;;;;;;;5056855;28;19909;-44
2022/05/05 04:53:15;;;;;;;;;;;;;;;;;;5055574;28;19909;-44
2022/05/05 04:55:40;;;;;;;;;;;;;;;;;;5056729;28;19913;-44
2022/05/05 04:58:05;;;;;;;;;;;;;;;;;;5056782;28;19940;-45
2022/05/05 05:00:31;;;;;;;;;;;;;;;;;;5056469;28;19964;-44
2022/05/05 05:02:56;;;;;;;;;;;;;;;;;;5056749;28;19989;-44
2022/05/05 05:05:21;;;;;;;;;;;;;;;;;;5055393;28;19908;-44
2022/05/05 05:07:46;;;;;;;;;;;;;;;;;;5056622;28;19915;-44
2022/05/05 05:10:11;;;;;;;;;;;;;;;;;;5056468;28;19924;-44
2022/05/05 05:12:36;;;;;;;;;;;;;;;;;;5056447;28;19916;-44
2022/05/05 05:15:01;;;;;;;;;;;;;;;;;;5056147;28;19913;-45
2022/05/05 05:17:27;;;;;;;;;;;;;;;;;;5056656;28;19945;-44
2022/05/05 05:19:52;;;;;;;;;;;;;;;;;;5056046;28;19916;-44
2022/05/05 05:22:17;;;;;;;;;;;;;;;;;;5056225;28;19963;-44
2022/05/05 05:24:42;;;;;;;;;;;;;;;;;;5055876;28;19912;-44
2022/05/05 05:27:08;;;;;;;;;;;;;;;;;;5056175;28;19909;-44
2022/05/05 05:29:33;;;;;;;;;;;;;;;;;;5055887;28;19969;-44
2022/05/05 05:31:58;;;;;;;;;;;;;;;;;;5056000;28;19908;-44
2022/05/05 05:34:23;;;;;;;;;;;;;;;;;;5055834;28;19912;-44
2022/05/05 05:36:52;;;;;;;;;;;;;;;;;;5056213;28;19909;-44
2022/05/05 05:39:17;;;;;;;;;;;;;;;;;;5055762;28;20357;-44
2022/05/05 05:41:42;;;;;;;;;;;;;;;;;;5055605;28;19916;-44
2022/05/05 05:44:07;;;;;;;;;;;;;;;;;;5055869;28;19963;-44
2022/05/05 05:46:32;;;;;;;;;;;;;;;;;;5055506;28;20418;-44
2022/05/05 05:48:57;;;;;;;;;;;;;;;;;;5055519;28;19909;-44
2022/05/05 05:51:24;;;;;;;;;;;;;;;;;;5055646;28;20348;-46
2022/05/05 05:53:49;;;;;;;;;;;;;;;;;;5055235;28;19920;-44
2022/05/05 05:56:15;;;;;;;;;;;;;;;;;;5055454;28;19909;-44
2022/05/05 05:58:40;;;;;;;;;;;;;;;;;;5055725;28;19909;-44
2022/05/05 06:01:06;;;;;;;;;;;;;;;;;;5055480;28;19909;-43
2022/05/05 06:06:15;;;;;;;;;;;;;;;;;;5055417;28;19916;-44
2022/05/05 06:08:40;;;;;;;;;;;;;;;;;;5055361;28;20348;-44
2022/05/05 06:11:05;;;;;;;;;;;;;;;;;;5055369;28;19909;-44
2022/05/05 06:13:30;;;;;;;;;;;;;;;;;;5054977;28;19931;-44
2022/05/05 06:15:55;;;;;;;;;;;;;;;;;;5055040;28;19920;-44
2022/05/05 06:18:21;;;;;;;;;;;;;;;;;;5055125;28;19916;-44
2022/05/05 06:20:46;;;;;;;;;;;;;;;;;;5054993;28;19909;-42
2022/05/05 06:23:12;;;;;;;;;;;;;;;;;;5054791;28;19952;-44
2022/05/05 06:25:37;;;;;;;;;;;;;;;;;;5054873;28;19948;-44
2022/05/05 06:28:04;;;;;;;;;;;;;;;;;;5055249;28;19970;-44
2022/05/05 06:30:29;;;;;;;;;;;;;;;;;;5054852;28;19966;-44
2022/05/05 06:32:54;;;;;;;;;;;;;;;;;;5054955;28;20415;-44
2022/05/05 06:35:19;;;;;;;;;;;;;;;;;;5054897;28;20006;-45
2022/05/05 06:37:50;;;;;;;;;;;;;;;;;;5054848;28;19909;-44
2022/05/05 06:40:15;;;;;;;;;;;;;;;;;;5054968;28;19913;-43
2022/05/05 06:42:41;;;;;;;;;;;;;;;;;;5054873;28;19911;-44
2022/05/05 06:45:06;;;;;;;;;;;;;;;;;;5054943;28;19916;-43
2022/05/05 06:47:31;;;;;;;;;;;;;;;;;;5054963;28;19959;-44
2022/05/05 06:49:56;;;;;;;;;;;;;;;;;;5054916;28;20011;-43
2022/05/05 06:52:21;;;;;;;;;;;;;;;;;;5054859;28;19917;-44
2022/05/05 06:54:47;;;;;;;;;;;;;;;;;;5054116;28;19923;-43
2022/05/05 06:57:12;;;;;;;;;;;;;;;;;;5054619;28;19916;-44
2022/05/05 06:59:37;;;;;;;;;;;;;;;;;;5054763;28;19916;-43
2022/05/05 07:02:03;;;;;;;;;;;;;;;;;;5054737;28;19913;-44
2022/05/05 07:07:13;;;;;;;;;;;;;;;;;;5054545;28;19996;-44
2022/05/05 07:12:22;;;;;;;;;;;;;;;;;;5054587;28;19927;-44
2022/05/05 07:14:47;;;;;;;;;;;;;;;;;;5053015;28;19912;-44
2022/05/05 07:17:12;;;;;;;;;;;;;;;;;;5056874;28;20290;-44
2022/05/05 07:19:37;;;;;;;;;;;;;;;;;;5058594;28;19963;-44
2022/05/05 07:22:02;;;;;;;;;;;;;;;;;;5058406;28;19919;-44
2022/05/05 07:24:27;;;;;;;;;;;;;;;;;;5058354;28;19923;-44
2022/05/05 07:26:52;;;;;;;;;;;;;;;;;;5057301;28;19999;-45
2022/05/05 07:29:17;;;;;;;;;;;;;;;;;;5058092;28;19928;-44
2022/05/05 07:31:43;;;;;;;;;;;;;;;;;;5057865;28;19962;-43
2022/05/05 07:34:08;;;;;;;;;;;;;;;;;;5051929;28;20383;-44
2022/05/05 07:36:33;;;;;;;;;;;;;;;;;;5058074;28;19940;-43
2022/05/05 07:38:58;;;;;;;;;;;;;;;;;;5058098;28;19955;-44
2022/05/05 07:41:23;;;;;;;;;;;;;;;;;;5056513;28;19967;-44
2022/05/05 07:43:50;;;;;;;;;;;;;;;;;;5058038;28;19916;-47
2022/05/05 07:46:17;;;;;;;;;;;;;;;;;;5058165;28;19916;-42
2022/05/05 07:48:43;;;;;;;;;;;;;;;;;;5057923;28;19924;-44
2022/05/05 07:51:08;;;;;;;;;;;;;;;;;;5058002;28;19999;-44
2022/05/05 07:53:33;;;;;;;;;;;;;;;;;;5057947;28;20339;-44
2022/05/05 07:55:59;;;;;;;;;;;;;;;;;;5057280;28;19987;-44
2022/05/05 07:58:24;;;;;;;;;;;;;;;;;;5056003;28;20383;-44
2022/05/05 08:00:49;;;;;;;;;;;;;;;;;;5057691;28;20363;-44
2022/05/05 08:03:14;;;;;;;;;;;;;;;;;;5057684;28;20321;-44
2022/05/05 08:05:39;;;;;;;;;;;;;;;;;;5057770;28;19912;-43
2022/05/05 08:08:05;;;;;;;;;;;;;;;;;;5057677;28;19915;-44
2022/05/05 08:10:31;;;;;;;;;;;;;;;;;;5057549;28;19916;-44
2022/05/05 08:12:56;;;;;;;;;;;;;;;;;;5057497;28;19909;-44
2022/05/05 08:15:22;;;;;;;;;;;;;;;;;;5057361;28;19916;-44
2022/05/05 08:17:48;;;;;;;;;;;;;;;;;;5057553;28;19992;-45
2022/05/05 08:20:13;;;;;;;;;;;;;;;;;;5057526;28;20003;-45
2022/05/05 08:22:38;;;;;;;;;;;;;;;;;;5057395;28;20315;-45
2022/05/05 08:30:30;;;;;;;;;;;;;;;;;;5057292;28;19978;-44
2022/05/05 08:32:56;;;;;;;;;;;;;;;;;;5055901;28;20352;-44
2022/05/05 08:35:22;;;;;;;;;;;;;;;;;;5057166;28;19919;-44
2022/05/05 08:37:47;;;;;;;;;;;;;;;;;;5056973;28;19913;-44
2022/05/05 08:40:13;;;;;;;;;;;;;;;;;;5057011;28;20272;-45
2022/05/05 08:42:38;;;;;;;;;;;;;;;;;;5055570;28;19966;-44
2022/05/05 08:45:03;;;;;;;;;;;;;;;;;;5055749;28;20276;-44
2022/05/05 08:47:28;;;;;;;;;;;;;;;;;;5056796;28;19996;-44
2022/05/05 08:49:53;;;;;;;;;;;;;;;;;;5056847;28;19963;-44
2022/05/05 08:52:18;;;;;;;;;;;;;;;;;;5056662;28;19909;-45
2022/05/05 08:54:43;;;;;;;;;;;;;;;;;;5056394;28;19920;-44
2022/05/05 08:57:08;;;;;;;;;;;;;;;;;;5056796;28;19920;-43
2022/05/05 08:59:33;;;;;;;;;;;;;;;;;;5056636;28;20383;-44
2022/05/05 09:01:59;;;;;;;;;;;;;;;;;;5056479;28;19962;-45
2022/05/05 09:04:24;;;;;;;;;;;;;;;;;;5056424;28;19916;-44
2022/05/05 09:06:50;;;;;;;;;;;;;;;;;;5056450;28;19908;-45
2022/05/05 09:09:15;;;;;;;;;;;;;;;;;;5056674;28;19909;-44
2022/05/05 09:11:40;;;;;;;;;;;;;;;;;;5056391;28;19944;-45
2022/05/05 09:14:05;;;;;;;;;;;;;;;;;;5056398;28;19948;-45
2022/05/05 09:16:30;;;;;;;;;;;;;;;;;;5056236;28;19996;-45
2022/05/05 09:18:55;;;;;;;;;;;;;;;;;;5056207;28;20340;-46
2022/05/05 09:21:21;;;;;;;;;;;;;;;;;;5056278;28;19944;-45
2022/05/05 09:26:35;;;;;;;;;;;;;;;;;;5056294;28;19943;-44
2022/05/05 09:29:00;;;;;;;;;;;;;;;;;;5056022;28;19996;-44
2022/05/05 09:31:25;;;;;;;;;;;;;;;;;;5055897;28;19959;-45
2022/05/05 09:33:51;;;;;;;;;;;;;;;;;;5056012;28;19980;-45
2022/05/05 09:36:16;;;;;;;;;;;;;;;;;;5054694;28;19912;-45
2022/05/05 09:38:41;;;;;;;;;;;;;;;;;;5055211;28;19982;-44
2022/05/05 09:41:06;;;;;;;;;;;;;;;;;;5055783;28;20276;-45
2022/05/05 09:43:32;;;;;;;;;;;;;;;;;;5055797;28;19909;-44
2022/05/05 09:45:57;;;;;;;;;;;;;;;;;;5055751;28;19909;-44
2022/05/05 09:48:22;;;;;;;;;;;;;;;;;;5055620;28;20016;-46
2022/05/05 09:50:47;;;;;;;;;;;;;;;;;;5055682;28;19913;-45
2022/05/05 09:58:40;;;;;;;;;;;;;;;;;;5055660;28;19955;-45
2022/05/05 10:01:06;;;;;;;;;;;;;;;;;;5055494;28;19908;-45
2022/05/05 10:06:15;;;;;;;;;;;;;;;;;;5055486;28;19938;-45
2022/05/05 10:08:40;;;;;;;;;;;;;;;;;;5055400;28;19992;-45
2022/05/05 10:11:05;;;;;;;;;;;;;;;;;;5055329;28;19909;-46
2022/05/05 10:13:31;;;;;;;;;;;;;;;;;;5055138;28;20299;-45
2022/05/05 10:15:57;;;;;;;;;;;;;;;;;;5055109;28;19958;-44
2022/05/05 10:18:22;;;;;;;;;;;;;;;;;;5055083;28;19909;-44
2022/05/05 10:20:47;;;;;;;;;;;;;;;;;;5055140;28;19955;-45
2022/05/05 10:23:12;;;;;;;;;;;;;;;;;;5055074;28;19912;-45
2022/05/05 10:25:37;;;;;;;;;;;;;;;;;;5052986;28;19916;-44
2022/05/05 10:28:02;;;;;;;;;;;;;;;;;;5054847;28;19932;-45
2022/05/05 10:30:27;;;;;;;;;;;;;;;;;;5054336;28;19921;-45
2022/05/05 10:32:52;;;;;;;;;;;;;;;;;;5054707;28;19913;-44
2022/05/05 10:35:17;;;;;;;;;;;;;;;;;;5054614;28;19913;-45
2022/05/05 10:37:43;;;;;;;;;;;;;;;;;;5054752;28;19909;-46
2022/05/05 10:40:09;;;;;;;;;;;;;;;;;;5070224;28;19909;-43
2022/05/05 10:42:35;;;;;;;;;;;;;;;;;;5054824;28;20390;-43
2022/05/05 10:45:00;;;;;;;;;;;;;;;;;;5054555;28;19915;-43
2022/05/05 10:47:25;;;;;;;;;;;;;;;;;;5054706;28;19909;-46
2022/05/05 10:49:50;;;;;;;;;;;;;;;;;;5054701;28;19916;-44
2022/05/05 10:52:15;;;;;;;;;;;;;;;;;;5054634;28;19915;-43
2022/05/05 10:54:40;;;;;;;;;;;;;;;;;;5054140;28;19956;-44
2022/05/05 10:57:05;;;;;;;;;;;;;;;;;;5054576;28;19956;-44
2022/05/05 10:59:30;;;;;;;;;;;;;;;;;;5054371;28;19944;-44
2022/05/05 11:01:56;;;;;;;;;;;;;;;;;;5054468;28;19958;-43
2022/05/05 11:04:21;;;;;;;;;;;;;;;;;;5054469;28;19913;-43
2022/05/05 11:06:49;;;;;;;;;;;;;;;;;;5053179;28;20307;-43
2022/05/05 11:09:14;;;;;;;;;;;;;;;;;;5054374;28;19913;-43
2022/05/05 11:11:43;;;;;;;;;;;;;;;;;;5054350;28;19909;-44
2022/05/05 11:21:31;;;;;;;;;;;;;;;;;;5054251;28;19916;-43
2022/05/05 11:22:21;;;;;;;;;;;;;;;;;;5054310;28;19916;-43
2022/05/05 11:24:46;;;;;;;;;;;;;;;;;;5053946;28;19995;-43
2022/05/05 11:27:12;;;;;;;;;;;;;;;;;;5054195;28;19909;-44
2022/05/05 11:29:37;;;;;;;;;;;;;;;;;;5054035;28;19921;-43
2022/05/05 11:32:02;;;;;;;;;;;;;;;;;;5054033;28;19936;-43
2022/05/05 11:34:27;;;;;;;;;;;;;;;;;;5054160;28;19916;-43
2022/05/05 11:36:52;;;;;;;;;;;;;;;;;;5054135;28;19909;-44
2022/05/05 11:39:17;;;;;;;;;;;;;;;;;;5054082;28;19909;-44
2022/05/05 11:41:42;;;;;;;;;;;;;;;;;;5054143;28;19909;-44
2022/05/05 11:44:20;;;;;;;;;;;;;;;;;;5054067;28;19913;-45
2022/05/05 11:46:45;;;;;;;;;;;;;;;;;;5053894;28;19909;-44
2022/05/05 11:49:10;;;;;;;;;;;;;;;;;;5053789;28;19947;-43
2022/05/05 11:51:35;;;;;;;;;;;;;;;;;;5054071;28;19909;-43
2022/05/05 11:54:00;;;;;;;;;;;;;;;;;;5054001;28;19919;-43
2022/05/05 11:56:26;;;;;;;;;;;;;;;;;;5053989;28;19913;-43
2022/05/05 12:01:40;;;;;;;;;;;;;;;;;;5054186;28;19915;-43
2022/05/05 12:04:05;;;;;;;;;;;;;;;;;;5057528;28;19934;-44
2022/05/05 12:06:30;;;;;;;;;;;;;;;;;;5057704;28;19909;-45
2022/05/05 12:08:55;;;;;;;;;;;;;;;;;;5057514;28;19909;-43
2022/05/05 12:11:20;;;;;;;;;;;;;;;;;;5057506;28;20006;-43
2022/05/05 12:13:45;;;;;;;;;;;;;;;;;;5057517;28;19913;-43
2022/05/05 12:16:11;;;;;;;;;;;;;;;;;;5057425;28;19912;-46
2022/05/05 12:18:36;;;;;;;;;;;;;;;;;;5057148;28;19908;-43
2022/05/05 12:21:01;;;;;;;;;;;;;;;;;;5055271;28;19917;-44
2022/05/05 12:23:27;;;;;;;;;;;;;;;;;;5057372;28;19915;-45
2022/05/05 12:25:52;;;;;;;;;;;;;;;;;;5056740;28;19974;-45
2022/05/05 12:28:17;;;;;;;;;;;;;;;;;;5056775;28;20003;-45
2022/05/05 12:30:42;;;;;;;;;;;;;;;;;;5057234;28;20364;-45
2022/05/05 12:33:07;;;;;;;;;;;;;;;;;;5057078;28;19912;-43
2022/05/05 12:35:32;;;;;;;;;;;;;;;;;;5074998;28;19934;-44
2022/05/05 12:37:57;;;;;;;;;;;;;;;;;;5077021;28;19914;-44
2022/05/05 12:40:22;;;;;;;;;;;;;;;;;;5077118;28;20007;-44
2022/05/05 12:42:48;;;;;;;;;;;;;;;;;;5077082;28;19997;-44
2022/05/05 12:45:13;;;;;;;;;;;;;;;;;;5077097;28;20003;-44
2022/05/05 12:47:38;;;;;;;;;;;;;;;;;;5076949;28;19912;-44
2022/05/05 12:50:04;;;;;;;;;;;;;;;;;;5077097;28;19919;-44
2022/05/05 13:00:40;;;;;;;;;;;;;;;;;;5056689;28;19916;-45
2022/05/05 13:03:05;;;;;;;;;;;;;;;;;;5056538;28;20348;-44
2022/05/05 13:05:30;;;;;;;;;;;;;;;;;;5056467;28;19909;-44
2022/05/05 13:07:55;;;;;;;;;;;;;;;;;;5056694;28;19909;-44
2022/05/05 13:10:21;;;;;;;;;;;;;;;;;;5056546;28;20414;-43
2022/05/05 13:12:46;;;;;;;;;;;;;;;;;;5056416;28;19908;-44
2022/05/05 13:15:11;;;;;;;;;;;;;;;;;;5055174;28;19920;-44
2022/05/05 13:17:36;;;;;;;;;;;;;;;;;;5056288;28;19916;-44
2022/05/05 13:20:01;;;;;;;;;;;;;;;;;;5056508;28;20319;-44
2022/05/05 13:22:29;;;;;;;;;;;;;;;;;;5056222;28;19915;-44
2022/05/05 13:24:54;;;;;;;;;;;;;;;;;;5055987;28;19913;-44
2022/05/05 13:27:19;;;;;;;;;;;;;;;;;;5056051;28;20323;-44
2022/05/05 13:29:45;;;;;;;;;;;;;;;;;;5050427;22;19987;-44
2022/05/05 13:32:10;;;;;;;;;;;;;;;;;;5036174;28;19916;-44
2022/05/05 13:34:35;;;;;;;;;;;;;;;;;;5035905;28;20007;-44
2022/05/05 13:37:00;;;;;;;;;;;;;;;;;;5036010;28;19916;-44
2022/05/05 13:39:27;;;;;;;;;;;;;;;;;;5035228;28;20213;-45
2022/05/05 13:41:52;;;;;;;;;;;;;;;;;;5035898;28;19910;-44
2022/05/05 13:44:18;;;;;;;;;;;;;;;;;;5035799;28;20363;-44
2022/05/05 13:46:43;;;;;;;;;;;;;;;;;;5035912;28;19909;-44
2022/05/05 13:49:08;;;;;;;;;;;;;;;;;;5035660;28;19916;-43
2022/05/05 13:51:34;;;;;;;;;;;;;;;;;;5035637;28;19909;-45
2022/05/05 13:53:59;;;;;;;;;;;;;;;;;;5035587;28;19909;-44
2022/05/05 13:56:24;;;;;;;;;;;;;;;;;;5035294;28;19935;-44
2022/05/05 13:58:49;;;;;;;;;;;;;;;;;;5035574;28;19959;-45
2022/05/05 14:01:14;;;;;;;;;;;;;;;;;;5035453;28;19936;-43
2022/05/05 14:03:39;;;;;;;;;;;;;;;;;;5044434;28;19947;-44
2022/05/05 14:06:04;;;;;;;;;;;;;;;;;;5055300;28;19961;-44
2022/05/05 14:13:58;;;;;;;;;;;;;;;;;;5055255;28;19917;-44
2022/05/05 14:16:23;;;;;;;;;;;;;;;;;;5055151;28;20375;-44
2022/05/05 14:18:48;;;;;;;;;;;;;;;;;;5055026;28;19909;-44
2022/05/05 14:21:13;;;;;;;;;;;;;;;;;;5055161;28;19909;-43
2022/05/05 14:23:38;;;;;;;;;;;;;;;;;;5055235;28;19909;-44
2022/05/05 14:26:04;;;;;;;;;;;;;;;;;;5053917;28;19935;-44
2022/05/05 14:28:29;;;;;;;;;;;;;;;;;;5054600;28;19908;-44
2022/05/05 14:30:55;;;;;;;;;;;;;;;;;;5054904;28;20015;-45
2022/05/05 14:33:21;;;;;;;;;;;;;;;;;;5054772;28;19908;-43
2022/05/05 14:35:46;;;;;;;;;;;;;;;;;;5053519;28;20348;-44
2022/05/05 14:38:12;;;;;;;;;;;;;;;;;;5054370;28;19909;-45
2022/05/05 14:40:38;;;;;;;;;;;;;;;;;;5053970;28;19912;-44
2022/05/05 14:43:03;;;;;;;;;;;;;;;;;;5054732;28;20257;-46
2022/05/05 14:45:28;;;;;;;;;;;;;;;;;;5054775;28;19916;-44
2022/05/05 14:47:53;;;;;;;;;;;;;;;;;;5054550;28;19916;-45
2022/05/05 14:50:18;;;;;;;;;;;;;;;;;;5054109;28;19912;-43
2022/05/05 14:52:43;;;;;;;;;;;;;;;;;;5054653;28;19909;-44
2022/05/05 14:55:08;;;;;;;;;;;;;;;;;;5054122;28;19947;-45
2022/05/05 14:57:34;;;;;;;;;;;;;;;;;;5054419;28;19992;-45
2022/05/05 14:59:59;;;;;;;;;;;;;;;;;;5054520;28;19908;-44
2022/05/05 15:02:24;;;;;;;;;;;;;;;;;;5054531;28;19909;-44
2022/05/05 15:04:49;;;;;;;;;;;;;;;;;;5054466;28;19916;-44
2022/05/05 15:07:14;;;;;;;;;;;;;;;;;;5054372;28;19905;-45
2022/05/05 15:09:39;;;;;;;;;;;;;;;;;;5054394;28;19909;-44
2022/05/05 15:12:04;;;;;;;;;;;;;;;;;;5054306;28;19979;-44
2022/05/05 15:14:32;;;;;;;;;;;;;;;;;;5054367;28;20002;-43
2022/05/05 15:16:57;;;;;;;;;;;;;;;;;;5054439;28;19991;-43
2022/05/05 15:19:23;;;;;;;;;;;;;;;;;;5054351;28;19983;-44
2022/05/05 15:21:48;;;;;;;;;;;;;;;;;;5054136;28;19948;-44
2022/05/05 15:24:13;;;;;;;;;;;;;;;;;;5053898;28;20376;-44
2022/05/05 15:26:38;;;;;;;;;;;;;;;;;;5054196;28;20004;-43
2022/05/05 15:29:04;;;;;;;;;;;;;;;;;;5054047;28;19924;-44
2022/05/05 15:31:29;;;;;;;;;;;;;;;;;;5054157;28;19916;-43
2022/05/05 15:33:54;;;;;;;;;;;;;;;;;;5054175;28;19909;-43
2022/05/05 15:36:19;;;;;;;;;;;;;;;;;;5054067;28;20256;-45
2022/05/05 15:38:44;;;;;;;;;;;;;;;;;;5056256;28;20359;-44
2022/05/05 15:41:09;;;;;;;;;;;;;;;;;;5057295;28;20283;-43
2022/05/05 15:43:34;;;;;;;;;;;;;;;;;;5057503;28;19912;-44
2022/05/05 15:45:59;;;;;;;;;;;;;;;;;;5057973;28;19946;-43
2022/05/05 15:48:25;;;;;;;;;;;;;;;;;;5057944;28;19909;-44
2022/05/05 15:50:50;;;;;;;;;;;;;;;;;;5057935;28;20256;-44
2022/05/05 15:53:15;;;;;;;;;;;;;;;;;;5057934;28;19944;-44
2022/05/05 15:55:40;;;;;;;;;;;;;;;;;;5057974;28;19956;-44
2022/05/05 15:58:06;;;;;;;;;;;;;;;;;;5057848;28;19908;-43
2022/05/05 16:00:31;;;;;;;;;;;;;;;;;;5057811;28;19909;-43
2022/05/05 16:02:56;;;;;;;;;;;;;;;;;;5057755;28;19909;-43
2022/05/05 16:05:22;;;;;;;;;;;;;;;;;;5057684;28;19909;-44
2022/05/05 16:07:49;;;;;;;;;;;;;;;;;;5057751;28;19939;-43
2022/05/05 16:10:14;;;;;;;;;;;;;;;;;;5057584;28;19931;-43
2022/05/05 16:12:39;;;;;;;;;;;;;;;;;;5057440;28;19909;-44
2022/05/05 16:15:05;;;;;;;;;;;;;;;;;;5057082;28;20261;-44
2022/05/05 16:17:30;;;;;;;;;;;;;;;;;;5057495;28;19916;-45
2022/05/05 16:19:55;;;;;;;;;;;;;;;;;;5057483;28;20268;-43
2022/05/05 16:22:20;;;;;;;;;;;;;;;;;;5057349;28;20340;-46
2022/05/05 16:30:14;;;;;;;;;;;;;;;;;;5057398;28;19927;-44
2022/05/05 16:32:40;;;;;;;;;;;;;;;;;;5057266;28;19915;-45
2022/05/05 16:35:05;;;;;;;;;;;;;;;;;;5056984;28;19983;-44
2022/05/05 16:37:33;;;;;;;;;;;;;;;;;;5057107;28;19909;-44
2022/05/05 16:39:58;;;;;;;;;;;;;;;;;;5056989;28;20027;-44
2022/05/05 16:42:24;;;;;;;;;;;;;;;;;;5057067;28;20371;-44
2022/05/05 16:44:49;;;;;;;;;;;;;;;;;;5056706;28;19912;-44
2022/05/05 16:47:14;;;;;;;;;;;;;;;;;;5056943;28;19920;-44
2022/05/05 16:49:39;;;;;;;;;;;;;;;;;;5056648;28;19912;-44
2022/05/05 16:52:04;;;;;;;;;;;;;;;;;;5056841;28;19919;-44
2022/05/05 16:54:29;;;;;;;;;;;;;;;;;;5054646;28;19913;-45
2022/05/05 16:56:54;;;;;;;;;;;;;;;;;;5056570;28;20361;-44
2022/05/05 16:59:20;;;;;;;;;;;;;;;;;;5056785;28;19931;-45
2022/05/05 17:01:45;;;;;;;;;;;;;;;;;;5056631;28;19905;-44
2022/05/05 17:04:10;;;;;;;;;;;;;;;;;;5056521;28;19952;-44
2022/05/05 17:06:36;;;;;;;;;;;;;;;;;;5056240;28;19912;-44
2022/05/05 17:09:01;;;;;;;;;;;;;;;;;;5056622;28;19908;-44
2022/05/05 17:11:27;;;;;;;;;;;;;;;;;;5055686;28;19924;-44
2022/05/05 17:13:52;;;;;;;;;;;;;;;;;;5056054;28;19923;-44
2022/05/05 17:16:17;;;;;;;;;;;;;;;;;;5056104;28;19917;-45
2022/05/05 17:18:42;;;;;;;;;;;;;;;;;;5056146;28;19909;-44
2022/05/05 17:21:07;;;;;;;;;;;;;;;;;;5056119;28;19912;-45
2022/05/05 17:23:32;;;;;;;;;;;;;;;;;;5056245;28;19909;-44
2022/05/05 17:25:57;;;;;;;;;;;;;;;;;;5055889;28;20007;-43
2022/05/05 17:28:22;;;;;;;;;;;;;;;;;;5055916;28;20407;-44
2022/05/05 17:30:47;;;;;;;;;;;;;;;;;;5055237;28;20391;-45
2022/05/05 17:33:12;;;;;;;;;;;;;;;;;;5053867;28;19971;-46
2022/05/05 17:35:38;;;;;;;;;;;;;;;;;;5054649;28;20016;-45
2022/05/05 17:38:03;;;;;;;;;;;;;;;;;;5055025;28;20000;-45